Time;durP1;ratioP1;P1;durP2;ratioP2;P2;SDS_P1;SDS_P2;PMS_P1;PMS_P2;Temp;Humidity;BMP_temperature;BMP_pressure;BME280_temperature;BME280_humidity;BME280_pressure;Samples;Min_cycle;Max_cycle;Signal;HPM_P1;HPM_P2
2022/08/09 00:01:38;;;;;;;5.43;3.85;;;;;;;16.22;100.00;102637.25;5206940;28;20029;-73
2022/08/09 00:04:08;;;;;;;7.25;4.03;;;;;;;16.17;100.00;102634.16;5193430;28;20050;-72
2022/08/09 00:06:39;;;;;;;6.22;4.00;;;;;;;16.15;100.00;102635.31;5196745;28;20026;-72
2022/08/09 00:09:10;;;;;;;9.52;4.35;;;;;;;16.12;100.00;102638.38;5203452;28;20654;-73
2022/08/09 00:11:41;;;;;;;9.13;3.90;;;;;;;16.06;100.00;102637.13;5206646;28;20152;-73
2022/08/09 00:14:13;;;;;;;7.13;3.95;;;;;;;16.03;100.00;102635.59;5205734;28;20485;-73
2022/08/09 00:16:43;;;;;;;12.38;4.55;;;;;;;16.01;100.00;102632.22;5198734;28;20400;-73
2022/08/09 00:19:14;;;;;;;8.75;4.18;;;;;;;16.01;100.00;102643.03;5193050;28;20038;-73
2022/08/09 00:21:45;;;;;;;7.30;4.38;;;;;;;15.99;100.00;102645.03;5205104;28;20021;-74
2022/08/09 00:24:15;;;;;;;6.00;3.92;;;;;;;15.95;100.00;102640.94;5205550;28;20112;-73
2022/08/09 00:26:47;;;;;;;6.85;4.50;;;;;;;15.94;100.00;102641.09;5193085;28;20026;-73
2022/08/09 00:29:18;;;;;;;6.57;4.28;;;;;;;15.93;100.00;102639.41;5206144;28;20037;-73
2022/08/09 00:31:48;;;;;;;8.70;5.07;;;;;;;15.91;100.00;102634.13;5202497;28;20383;-74
2022/08/09 00:34:19;;;;;;;8.32;5.43;;;;;;;15.89;100.00;102638.88;5195501;28;20056;-73
2022/08/09 00:36:50;;;;;;;9.65;5.38;;;;;;;15.87;100.00;102631.94;5206355;28;20029;-72
2022/08/09 00:39:21;;;;;;;11.25;5.75;;;;;;;15.86;100.00;102632.91;5206402;28;20029;-73
2022/08/09 00:41:51;;;;;;;9.82;5.93;;;;;;;15.84;100.00;102629.53;5205908;28;20025;-74
2022/08/09 00:44:22;;;;;;;11.27;5.55;;;;;;;15.84;100.00;102632.25;5205032;28;20036;-73
2022/08/09 00:46:54;;;;;;;8.20;5.50;;;;;;;15.82;100.00;102634.25;5205852;28;20124;-73
2022/08/09 00:49:24;;;;;;;12.32;5.70;;;;;;;15.80;100.00;102635.25;5202094;28;20037;-74
2022/08/09 00:51:56;;;;;;;7.38;5.45;;;;;;;15.76;100.00;102643.84;5205830;28;20376;-75
2022/08/09 00:54:26;;;;;;;8.35;5.65;;;;;;;15.76;100.00;102636.59;5201065;28;20495;-74
2022/08/09 00:56:57;;;;;;;10.68;5.78;;;;;;;15.74;100.00;102637.75;5195606;28;20067;-74
2022/08/09 00:59:27;;;;;;;9.48;4.80;;;;;;;15.73;100.00;102630.63;5205319;28;20021;-74
2022/08/09 01:02:01;;;;;;;13.60;6.53;;;;;;;15.72;100.00;102634.34;5205023;28;20021;-74
2022/08/09 01:04:40;;;;;;;9.35;6.28;;;;;;;15.69;100.00;102635.50;5205554;28;20105;-73
2022/08/09 01:07:21;;;;;;;8.60;6.00;;;;;;;15.67;100.00;102639.38;5205558;28;20497;-73
2022/08/09 01:10:04;;;;;;;11.27;5.35;;;;;;;15.64;100.00;102632.41;5205835;28;20059;-74
2022/08/09 01:12:54;;;;;;;10.23;5.80;;;;;;;15.62;100.00;102634.41;5205644;28;20056;-71
2022/08/09 01:15:30;;;;;;;11.43;5.13;;;;;;;15.63;100.00;102625.31;5197064;28;20089;-74
2022/08/09 01:18:06;;;;;;;13.27;6.22;;;;;;;15.65;100.00;102636.81;5205670;28;20021;-75
2022/08/09 01:20:59;;;;;;;12.13;5.60;;;;;;;15.63;100.00;102630.72;5205279;28;20107;-73
2022/08/09 01:24:06;;;;;;;11.32;5.93;;;;;;;15.61;100.00;102627.28;5204036;28;20029;-73
2022/08/09 01:26:56;;;;;;;10.68;7.10;;;;;;;15.61;100.00;102629.97;5204838;28;20033;-72
2022/08/09 01:29:32;;;;;;;15.13;7.30;;;;;;;15.59;100.00;102631.16;5205729;28;20025;-73
2022/08/09 01:32:06;;;;;;;15.40;6.25;;;;;;;15.57;100.00;102636.72;5205182;28;20057;-72
2022/08/09 01:34:38;;;;;;;9.98;5.53;;;;;;;15.54;100.00;102634.31;5204133;28;20743;-72
2022/08/09 01:37:11;;;;;;;8.20;6.22;;;;;;;15.53;100.00;102635.34;5204104;28;20026;-73
2022/08/09 01:39:45;;;;;;;11.77;5.78;;;;;;;15.55;100.00;102633.31;5205500;28;20052;-72
2022/08/09 01:42:16;;;;;;;10.38;6.20;;;;;;;15.52;100.00;102629.09;5205216;28;20479;-72
2022/08/09 01:44:48;;;;;;;17.67;6.57;;;;;;;15.49;100.00;102632.09;5203175;28;20032;-73
2022/08/09 01:47:20;;;;;;;12.20;5.90;;;;;;;15.45;100.00;102632.53;5209559;28;20023;-71
2022/08/09 01:49:54;;;;;;;16.42;6.43;;;;;;;15.41;100.00;102632.03;5202767;28;20028;-73
2022/08/09 01:52:26;;;;;;;10.63;5.53;;;;;;;15.41;100.00;102628.44;5204932;28;20108;-73
2022/08/09 01:54:58;;;;;;;10.27;6.13;;;;;;;15.41;100.00;102626.63;5190973;28;20017;-74
2022/08/09 01:57:36;;;;;;;12.70;5.93;;;;;;;15.41;100.00;102628.44;5204289;28;20408;-73
2022/08/09 02:00:09;;;;;;;10.73;6.07;;;;;;;15.41;100.00;102620.34;5204904;28;20029;-74
2022/08/09 02:02:45;;;;;;;15.65;7.05;;;;;;;15.39;100.00;102619.66;5200370;28;20028;-73
2022/08/09 02:05:20;;;;;;;11.18;5.70;;;;;;;15.35;100.00;102623.66;5195616;28;20029;-72
2022/08/09 02:07:57;;;;;;;13.70;5.80;;;;;;;15.32;100.00;102626.69;5204147;28;20108;-72
2022/08/09 02:10:34;;;;;;;9.07;5.65;;;;;;;15.32;100.00;102626.69;5203950;28;20109;-72
2022/08/09 02:13:13;;;;;;;11.43;5.47;;;;;;;15.31;100.00;102630.38;5204533;28;20033;-72
2022/08/09 02:15:54;;;;;;;9.25;5.55;;;;;;;15.30;100.00;102629.53;5195591;28;20268;-73
2022/08/09 02:18:29;;;;;;;10.32;5.57;;;;;;;15.27;100.00;102628.00;5204154;28;20028;-72
2022/08/09 02:21:07;;;;;;;11.68;7.07;;;;;;;15.25;100.00;102629.16;5204664;28;20061;-71
2022/08/09 02:23:42;;;;;;;10.20;5.65;;;;;;;15.21;100.00;102625.91;5204101;28;20182;-73
2022/08/09 02:26:15;;;;;;;8.98;5.47;;;;;;;15.19;100.00;102627.91;5203567;28;20438;-72
2022/08/09 02:28:52;;;;;;;11.07;6.03;;;;;;;15.15;100.00;102629.22;5203798;28;20478;-72
2022/08/09 02:31:29;;;;;;;11.20;6.68;;;;;;;15.13;100.00;102617.72;5204390;28;20037;-73
2022/08/09 02:34:07;;;;;;;8.93;5.85;;;;;;;15.08;100.00;102620.03;5191043;28;20039;-73
2022/08/09 02:36:41;;;;;;;10.75;5.50;;;;;;;15.08;100.00;102614.63;5203827;28;20037;-71
2022/08/09 02:39:17;;;;;;;10.63;6.82;;;;;;;15.07;100.00;102612.94;5203975;28;20033;-72
2022/08/09 02:41:52;;;;;;;8.52;5.90;;;;;;;15.04;100.00;102610.53;5204111;28;20052;-74
2022/08/09 02:44:26;;;;;;;7.18;5.30;;;;;;;15.02;100.00;102618.78;5203118;28;20029;-73
2022/08/09 02:47:02;;;;;;;11.48;6.18;;;;;;;15.00;100.00;102617.22;5206473;28;20036;-74
2022/08/09 02:49:38;;;;;;;10.23;6.00;;;;;;;14.96;100.00;102611.28;5201509;28;20032;-72
2022/08/09 02:52:14;;;;;;;9.48;5.97;;;;;;;14.91;100.00;102612.72;5194371;28;20103;-74
2022/08/09 02:54:45;;;;;;;11.60;5.43;;;;;;;14.88;100.00;102608.50;5202905;28;20372;-73
2022/08/09 02:57:18;;;;;;;14.50;6.40;;;;;;;14.88;100.00;102604.94;5203728;28;20048;-71
2022/08/09 02:59:50;;;;;;;10.07;5.85;;;;;;;14.90;100.00;102611.03;5203432;28;20048;-74
2022/08/09 03:02:22;;;;;;;10.20;5.30;;;;;;;14.90;100.00;102608.34;5203367;28;20112;-74
2022/08/09 03:04:54;;;;;;;9.18;5.30;;;;;;;14.91;100.00;102610.91;5191549;28;20471;-73
2022/08/09 03:07:26;;;;;;;9.25;5.35;;;;;;;14.91;100.00;102616.31;5203798;28;20029;-74
2022/08/09 03:09:58;;;;;;;7.20;5.70;;;;;;;14.87;100.00;102614.91;5203389;28;20043;-74
2022/08/09 03:12:31;;;;;;;9.00;5.53;;;;;;;14.82;100.00;102614.50;5203359;28;20018;-73
2022/08/09 03:15:02;;;;;;;12.98;5.60;;;;;;;14.77;100.00;102622.22;5196075;28;20013;-73
2022/08/09 03:17:35;;;;;;;11.70;6.00;;;;;;;14.79;100.00;102617.50;5202527;28;20038;-73
2022/08/09 03:20:07;;;;;;;11.18;6.15;;;;;;;14.80;100.00;102630.00;5203319;28;20040;-73
2022/08/09 03:22:42;;;;;;;14.95;6.63;;;;;;;14.75;100.00;102619.66;5193036;28;20026;-73
2022/08/09 03:25:13;;;;;;;10.45;5.80;;;;;;;14.70;100.00;102621.94;5197803;28;20117;-73
2022/08/09 03:27:47;;;;;;;10.40;5.88;;;;;;;14.64;100.00;102622.56;5203520;28;20029;-74
2022/08/09 03:30:18;;;;;;;8.43;6.10;;;;;;;14.64;100.00;102625.25;5203472;28;20052;-74
2022/08/09 03:32:51;;;;;;;10.60;6.00;;;;;;;14.62;100.00;102629.13;5203419;28;20026;-74
2022/08/09 03:35:22;;;;;;;10.05;6.43;;;;;;;14.58;100.00;102622.31;5202058;28;20056;-73
2022/08/09 03:37:52;;;;;;;11.75;6.32;;;;;;;14.52;100.00;102626.47;5203077;28;20068;-73
2022/08/09 03:40:23;;;;;;;15.60;6.97;;;;;;;14.44;100.00;102626.31;5203056;28;20491;-73
2022/08/09 03:42:53;;;;;;;9.68;6.45;;;;;;;14.41;100.00;102626.63;5201981;28;20104;-72
2022/08/09 03:45:24;;;;;;;9.20;6.35;;;;;;;14.38;100.00;102627.75;5202560;28;20025;-73
2022/08/09 03:47:54;;;;;;;10.38;6.38;;;;;;;14.38;100.00;102622.34;5204812;28;20034;-72
2022/08/09 03:50:26;;;;;;;11.43;6.43;;;;;;;14.40;100.00;102631.16;5203182;28;20036;-73
2022/08/09 03:53:00;;;;;;;14.63;6.80;;;;;;;14.40;100.00;102641.94;5202559;28;20108;-73
2022/08/09 03:55:32;;;;;;;7.88;5.63;;;;;;;14.40;100.00;102636.56;5202314;28;20053;-74
2022/08/09 03:58:02;;;;;;;11.77;6.85;;;;;;;14.42;100.00;102639.13;5202470;28;20045;-71
2022/08/09 04:00:33;;;;;;;11.38;6.22;;;;;;;14.36;100.00;102631.63;5203073;28;20028;-72
2022/08/09 04:03:05;;;;;;;11.30;5.93;;;;;;;14.31;100.00;102626.66;5196380;28;20040;-72
2022/08/09 04:05:36;;;;;;;13.15;6.80;;;;;;;14.28;100.00;102628.78;5196422;28;20112;-72
2022/08/09 04:08:06;;;;;;;13.80;7.00;;;;;;;14.24;100.00;102625.53;5202717;28;20104;-71
2022/08/09 04:10:37;;;;;;;18.15;8.23;;;;;;;14.20;100.00;102643.00;5202363;28;20394;-71
2022/08/09 04:13:08;;;;;;;13.82;7.35;;;;;;;14.17;100.00;102637.94;5202780;28;20032;-72
2022/08/09 04:15:39;;;;;;;16.85;7.93;;;;;;;14.15;100.00;102639.91;5193752;28;20024;-72
2022/08/09 04:18:10;;;;;;;10.93;6.47;;;;;;;14.18;100.00;102634.22;5203147;28;20029;-73
2022/08/09 04:20:41;;;;;;;14.60;7.35;;;;;;;14.24;100.00;102637.19;5202997;28;20033;-73
2022/08/09 04:23:11;;;;;;;12.15;6.78;;;;;;;14.21;100.00;102637.50;5202277;28;20510;-71
2022/08/09 04:25:42;;;;;;;17.38;7.32;;;;;;;14.20;100.00;102649.25;5188555;28;20056;-71
2022/08/09 04:28:12;;;;;;;11.45;7.03;;;;;;;14.19;100.00;102634.06;5202660;28;20077;-71
2022/08/09 04:30:43;;;;;;;15.68;7.93;;;;;;;14.17;100.00;102646.03;5202492;28;20040;-71
2022/08/09 04:33:13;;;;;;;13.02;7.78;;;;;;;14.13;100.00;102644.59;5204181;28;20021;-73
2022/08/09 04:35:44;;;;;;;12.75;7.75;;;;;;;14.09;100.00;102643.19;5205732;28;20079;-74
2022/08/09 04:38:14;;;;;;;15.82;8.02;;;;;;;14.06;100.00;102641.66;5206319;28;20538;-74
2022/08/09 04:43:31;;;;;;;14.43;7.93;;;;;;;14.01;100.00;102649.34;5206389;28;20057;-71
2022/08/09 04:46:01;;;;;;;17.50;8.68;;;;;;;14.02;100.00;102650.19;5205236;28;20586;-72
2022/08/09 04:48:32;;;;;;;16.33;8.23;;;;;;;14.02;100.00;102647.47;5201775;28;20040;-71
2022/08/09 04:51:03;;;;;;;15.60;8.45;;;;;;;14.03;100.00;102650.03;5192185;28;20523;-72
2022/08/09 04:53:33;;;;;;;16.77;8.23;;;;;;;14.05;100.00;102653.41;5205607;28;20029;-72
2022/08/09 04:56:05;;;;;;;12.20;8.57;;;;;;;14.09;100.00;102657.53;5204258;28;20013;-73
2022/08/09 04:58:35;;;;;;;14.48;8.30;;;;;;;14.11;100.00;102655.56;5205460;28;20041;-74
2022/08/09 05:01:06;;;;;;;13.77;8.35;;;;;;;14.16;100.00;102660.53;5205838;28;20018;-72
2022/08/09 05:03:36;;;;;;;14.35;8.27;;;;;;;14.21;100.00;102659.09;5195428;28;20037;-72
2022/08/09 05:06:07;;;;;;;16.13;8.07;;;;;;;14.27;100.00;102667.59;5203866;28;20395;-73
2022/08/09 05:08:38;;;;;;;15.85;8.35;;;;;;;14.31;100.00;102660.88;5205846;28;20021;-74
2022/08/09 05:11:08;;;;;;;15.63;8.93;;;;;;;14.35;100.00;102665.00;5205332;28;20025;-74
2022/08/09 05:13:39;;;;;;;17.63;8.00;;;;;;;14.40;100.00;102668.94;5205610;28;20034;-74
2022/08/09 05:16:10;;;;;;;16.85;8.45;;;;;;;14.45;100.00;102663.09;5197116;28;20017;-74
2022/08/09 05:18:40;;;;;;;13.80;7.95;;;;;;;14.52;100.00;102668.81;5205524;28;20035;-73
2022/08/09 05:21:11;;;;;;;11.93;8.43;;;;;;;14.58;100.00;102670.94;5205574;28;20029;-74
2022/08/09 05:23:42;;;;;;;15.23;7.78;;;;;;;14.65;100.00;102663.91;5204830;28;20103;-73
2022/08/09 05:26:12;;;;;;;14.43;8.35;;;;;;;14.70;100.00;102662.47;5204914;28;20033;-75
2022/08/09 05:28:43;;;;;;;20.75;8.63;;;;;;;14.75;100.00;102668.28;5204960;28;20036;-74
2022/08/09 05:31:13;;;;;;;15.27;8.55;;;;;;;14.81;100.00;102671.38;5204380;28;20430;-74
2022/08/09 05:33:44;;;;;;;14.50;8.02;;;;;;;14.89;100.00;102674.19;5206490;28;20068;-73
2022/08/09 05:36:14;;;;;;;12.68;8.10;;;;;;;14.97;100.00;102671.59;5207199;28;20025;-74
2022/08/09 05:38:45;;;;;;;19.13;8.88;;;;;;;15.06;100.00;102672.53;5205436;28;20388;-73
2022/08/09 05:41:15;;;;;;;14.63;8.25;;;;;;;15.14;100.00;102670.78;5205048;28;20029;-72
2022/08/09 05:43:46;;;;;;;14.45;8.32;;;;;;;15.21;100.00;102666.47;5204511;28;20029;-72
2022/08/09 05:46:16;;;;;;;16.20;8.13;;;;;;;15.32;100.00;102670.81;5203907;28;20045;-71
2022/08/09 05:48:47;;;;;;;12.50;7.78;;;;;;;15.43;100.00;102670.56;5202087;28;20109;-72
2022/08/09 05:51:17;;;;;;;16.15;8.60;;;;;;;15.56;100.00;102672.88;5204807;28;20033;-72
2022/08/09 05:53:48;;;;;;;17.23;8.50;;;;;;;15.68;100.00;102677.09;5205097;28;20033;-72
2022/08/09 05:56:19;;;;;;;16.40;8.80;;;;;;;15.83;100.00;102680.09;5192886;28;20083;-72
2022/08/09 05:58:50;;;;;;;18.60;9.20;;;;;;;16.03;100.00;102678.91;5203297;28;20029;-72
2022/08/09 06:01:20;;;;;;;19.30;8.57;;;;;;;16.63;100.00;102682.69;5204520;28;20029;-72
2022/08/09 06:03:51;;;;;;;13.07;7.45;;;;;;;17.46;100.00;102682.81;5192461;28;20029;-74
2022/08/09 06:06:22;;;;;;;18.98;7.00;;;;;;;18.42;100.00;102682.94;5204170;28;20040;-72
2022/08/09 06:08:53;;;;;;;9.77;5.72;;;;;;;19.34;100.00;102673.25;5204296;28;20100;-72
2022/08/09 06:11:23;;;;;;;10.27;5.47;;;;;;;20.17;100.00;102680.56;5204173;28;20029;-72
2022/08/09 06:13:54;;;;;;;10.05;5.60;;;;;;;20.78;100.00;102694.06;5204289;28;20438;-73
2022/08/09 06:16:24;;;;;;;7.97;5.15;;;;;;;21.29;100.00;102693.25;5195936;28;20025;-71
2022/08/09 06:18:55;;;;;;;10.93;5.47;;;;;;;21.80;100.00;102696.75;5204077;28;20021;-72
2022/08/09 06:21:25;;;;;;;11.90;5.20;;;;;;;22.28;100.00;102698.84;5204334;28;20024;-73
2022/08/09 06:23:56;;;;;;;9.10;5.10;;;;;;;22.54;100.00;102700.91;5203412;28;20491;-73
2022/08/09 06:26:26;;;;;;;14.18;5.28;;;;;;;22.92;100.00;102706.84;5203934;28;20037;-72
2022/08/09 06:28:57;;;;;;;13.07;6.15;;;;;;;23.10;100.00;102701.66;5204073;28;20032;-73
2022/08/09 06:31:28;;;;;;;7.97;5.25;;;;;;;23.43;100.00;102711.84;5195426;28;20570;-73
2022/08/09 06:33:59;;;;;;;8.75;5.45;;;;;;;23.56;100.00;102709.16;5185910;28;20489;-73
2022/08/09 06:36:29;;;;;;;13.27;5.18;;;;;;;23.77;100.00;102703.53;5199950;28;20116;-73
2022/08/09 06:39:00;;;;;;;10.80;4.95;;;;;;;23.93;100.00;102718.72;5201227;28;20483;-73
2022/08/09 06:41:31;;;;;;;8.38;5.40;;;;;;;24.14;100.00;102714.06;5200944;28;20048;-73
2022/08/09 06:44:02;;;;;;;7.07;5.25;;;;;;;24.13;100.00;102717.88;5200865;28;20036;-73
2022/08/09 06:46:33;;;;;;;10.90;5.30;;;;;;;24.36;100.00;102718.31;5200171;28;20033;-73
2022/08/09 06:49:03;;;;;;;8.82;4.80;;;;;;;24.47;100.00;102716.81;5205427;28;20041;-73
2022/08/09 06:51:34;;;;;;;9.50;5.40;;;;;;;24.57;100.00;102721.88;5200427;28;20516;-73
2022/08/09 06:54:04;;;;;;;9.40;5.50;;;;;;;24.76;100.00;102723.72;5200316;28;20029;-73
2022/08/09 06:56:35;;;;;;;11.68;4.85;;;;;;;25.18;100.00;102721.47;5187766;28;20036;-72
2022/08/09 06:59:05;;;;;;;9.73;5.35;;;;;;;25.34;100.00;102722.88;5200439;28;20033;-73
2022/08/09 07:01:36;;;;;;;10.50;5.22;;;;;;;25.21;100.00;102718.31;5200056;28;20130;-73
2022/08/09 07:04:06;;;;;;;11.68;4.57;;;;;;;25.36;100.00;102715.25;5187508;28;20033;-73
2022/08/09 07:06:37;;;;;;;8.95;4.82;;;;;;;25.50;100.00;102714.09;5200577;28;20055;-73
2022/08/09 07:09:08;;;;;;;11.40;5.05;;;;;;;25.66;100.00;102726.50;5200523;28;20031;-73
2022/08/09 07:11:38;;;;;;;8.70;5.32;;;;;;;25.86;100.00;102727.22;5200675;28;20029;-73
2022/08/09 07:14:13;;;;;;;10.07;4.80;;;;;;;26.42;94.72;102728.22;5199350;28;20021;-72
2022/08/09 07:16:43;;;;;;;5.90;4.35;;;;;;;26.30;97.36;102731.69;5193623;28;20100;-73
2022/08/09 07:19:15;;;;;;;6.57;4.60;;;;;;;26.48;93.01;102728.19;5200161;28;20064;-73
2022/08/09 07:21:46;;;;;;;7.57;4.55;;;;;;;26.42;91.14;102731.84;5200065;28;20029;-73
2022/08/09 07:24:16;;;;;;;7.32;4.53;;;;;;;26.66;92.93;102732.88;5199186;28;20032;-73
2022/08/09 07:26:47;;;;;;;7.00;4.60;;;;;;;26.93;92.54;102727.88;5200434;28;20031;-73
2022/08/09 07:29:17;;;;;;;7.45;4.25;;;;;;;27.34;84.00;102718.91;5200687;28;20418;-73
2022/08/09 07:31:47;;;;;;;8.18;4.75;;;;;;;26.77;87.16;102723.84;5200048;28;20029;-73
2022/08/09 07:34:19;;;;;;;3.95;3.55;;;;;;;26.96;87.86;102724.69;5199420;28;20018;-74
2022/08/09 07:36:49;;;;;;;7.20;4.55;;;;;;;26.89;87.89;102721.16;5182834;28;20065;-73
2022/08/09 07:39:20;;;;;;;9.75;4.68;;;;;;;27.25;84.91;102717.53;5191450;28;20049;-73
2022/08/09 07:41:51;;;;;;;8.27;3.97;;;;;;;27.76;77.76;102716.19;5200085;28;20025;-73
2022/08/09 07:44:21;;;;;;;6.53;3.65;;;;;;;27.80;76.28;102708.28;5199141;28;20373;-73
2022/08/09 07:46:52;;;;;;;9.57;4.22;;;;;;;27.40;80.68;102713.53;5198477;28;20447;-73
2022/08/09 07:49:22;;;;;;;6.82;4.22;;;;;;;27.27;84.29;102720.06;5196457;28;20104;-74
2022/08/09 07:51:53;;;;;;;8.68;4.47;;;;;;;27.60;81.71;102719.56;5187763;28;20025;-73
2022/08/09 07:54:27;;;;;;;15.43;5.18;;;;;;;27.78;79.53;102721.47;5198649;28;20036;-73
2022/08/09 07:56:57;;;;;;;6.83;3.77;;;;;;;28.35;70.87;102721.78;5200341;28;20021;-74
2022/08/09 07:59:28;;;;;;;6.25;3.83;;;;;;;28.17;70.49;102719.13;5200085;28;20292;-73
2022/08/09 08:01:58;;;;;;;8.02;4.30;;;;;;;27.93;75.90;102727.38;5199764;28;20120;-73
2022/08/09 08:04:28;;;;;;;8.88;4.60;;;;;;;28.05;77.28;102730.13;5186384;28;20085;-73
2022/08/09 08:07:02;;;;;;;5.25;3.83;;;;;;;28.36;73.70;102732.56;5200041;28;20132;-74
2022/08/09 08:09:35;;;;;;;7.78;3.95;;;;;;;28.54;73.20;102728.03;5202828;28;20025;-74
2022/08/09 08:12:06;;;;;;;6.68;3.58;;;;;;;28.79;71.50;102734.09;5202703;28;20037;-74
2022/08/09 08:14:36;;;;;;;5.72;3.38;;;;;;;29.02;69.58;102724.97;5198995;28;20033;-74
2022/08/09 08:17:06;;;;;;;5.95;3.13;;;;;;;29.16;66.18;102731.84;5198694;28;20034;-74
2022/08/09 08:19:37;;;;;;;11.98;3.80;;;;;;;29.08;64.25;102729.50;5202889;28;20021;-74
2022/08/09 08:22:08;;;;;;;10.15;3.10;;;;;;;28.67;66.99;102740.72;5202981;28;20493;-75
2022/08/09 08:24:38;;;;;;;5.82;3.05;;;;;;;28.58;65.37;102735.59;5202018;28;20116;-75
2022/08/09 08:27:08;;;;;;;4.82;3.15;;;;;;;28.54;66.02;102739.06;5203046;28;20499;-74
2022/08/09 08:29:39;;;;;;;6.15;3.00;;;;;;;28.81;65.24;102736.63;5206556;28;20041;-74
2022/08/09 08:32:09;;;;;;;8.60;2.88;;;;;;;28.76;64.58;102730.97;5218231;28;20097;-74
2022/08/09 08:34:40;;;;;;;6.57;2.83;;;;;;;28.70;63.86;102731.97;5219106;28;20483;-74
2022/08/09 08:37:10;;;;;;;5.63;2.97;;;;;;;28.78;62.57;102734.34;5205567;28;20064;-74
2022/08/09 08:39:41;;;;;;;4.47;2.65;;;;;;;29.38;60.91;102731.19;5203164;28;20112;-74
2022/08/09 08:42:12;;;;;;;14.95;2.65;;;;;;;29.37;61.89;102732.28;5202533;28;20025;-74
2022/08/09 08:44:42;;;;;;;11.50;2.35;;;;;;;29.34;59.60;102738.31;5202036;28;20021;-75
2022/08/09 08:47:14;;;;;;;6.65;2.47;;;;;;;29.10;58.78;102729.25;5202898;28;20029;-74
2022/08/09 08:49:46;;;;;;;7.38;2.20;;;;;;;29.29;60.37;102724.38;5198358;28;20026;-74
2022/08/09 08:52:19;;;;;;;11.65;2.50;;;;;;;29.52;59.65;102726.19;5202925;28;20025;-74
2022/08/09 08:54:49;;;;;;;6.80;2.67;;;;;;;29.71;58.14;102727.66;5202135;28;20026;-74
2022/08/09 08:57:21;;;;;;;12.15;2.78;;;;;;;29.81;56.58;102732.53;5202607;28;20030;-74
2022/08/09 08:59:53;;;;;;;13.88;2.40;;;;;;;30.11;56.57;102737.75;5189771;28;20075;-74
2022/08/09 09:02:27;;;;;;;5.78;2.50;;;;;;;29.76;57.13;102732.47;5201380;28;20025;-74
2022/08/09 09:04:59;;;;;;;7.30;2.23;;;;;;;29.66;55.30;102742.25;5190396;28;20450;-74
2022/08/09 09:07:32;;;;;;;7.18;1.83;;;;;;;29.70;55.66;102733.47;5202167;28;20036;-74
2022/08/09 09:10:07;;;;;;;10.93;1.92;;;;;;;29.87;55.58;102739.84;5202539;28;20033;-74
2022/08/09 09:12:39;;;;;;;5.90;2.00;;;;;;;29.99;53.68;102745.31;5201853;28;20033;-75
2022/08/09 09:15:10;;;;;;;7.78;1.63;;;;;;;29.76;54.32;102733.28;5188579;28;20457;-75
2022/08/09 09:17:40;;;;;;;4.35;1.58;;;;;;;29.96;54.93;102732.81;5201973;28;20068;-75
2022/08/09 09:20:13;;;;;;;6.85;1.65;;;;;;;30.08;52.75;102730.81;5201781;28;20083;-74
2022/08/09 09:23:02;;;;;;;8.13;1.70;;;;;;;29.84;52.11;102726.53;5202179;28;20033;-75
2022/08/09 09:25:49;;;;;;;6.78;2.17;;;;;;;29.85;53.60;102719.91;5201321;28;20087;-74
2022/08/09 09:28:19;;;;;;;8.52;2.42;;;;;;;30.00;55.82;102725.69;5202217;28;20041;-74
2022/08/09 09:30:53;;;;;;;3.88;2.17;;;;;;;30.16;54.96;102729.56;5202145;28;20036;-75
2022/08/09 09:33:35;;;;;;;6.97;2.13;;;;;;;30.27;54.08;102733.31;5201446;28;20037;-75
2022/08/09 09:36:08;;;;;;;9.23;2.30;;;;;;;30.54;53.55;102731.53;5200960;28;20044;-75
2022/08/09 09:38:42;;;;;;;5.72;2.20;;;;;;;30.72;50.98;102729.56;5188706;28;20032;-75
2022/08/09 09:41:25;;;;;;;2.67;2.10;;;;;;;30.26;54.74;102738.03;5201884;28;20128;-75
2022/08/09 09:43:58;;;;;;;5.65;2.25;;;;;;;30.45;54.23;102730.28;5201337;28;20391;-75
2022/08/09 09:46:33;;;;;;;7.15;2.10;;;;;;;30.35;53.13;102735.66;5200542;28;20024;-75
2022/08/09 09:49:06;;;;;;;6.10;2.00;;;;;;;30.37;52.22;102733.47;5199087;28;20026;-75
2022/08/09 09:51:39;;;;;;;4.28;2.03;;;;;;;30.49;52.31;102734.22;5201647;28;20056;-74
2022/08/09 09:54:12;;;;;;;7.60;2.25;;;;;;;30.63;52.98;102731.94;5198814;28;20495;-75
2022/08/09 09:56:44;;;;;;;3.75;1.95;;;;;;;30.70;52.32;102732.59;5189428;28;20021;-74
2022/08/09 09:59:22;;;;;;;5.20;1.88;;;;;;;30.64;51.17;102734.44;5201489;28;20112;-74
2022/08/09 10:02:11;;;;;;;5.22;1.50;;;;;;;30.54;48.82;102731.53;5201372;28;20025;-74
2022/08/09 10:04:42;;;;;;;6.78;1.65;;;;;;;30.49;48.98;102731.44;5187687;28;20083;-74
2022/08/09 10:07:25;;;;;;;5.05;1.40;;;;;;;30.08;49.08;102729.97;5201376;28;20306;-74
2022/08/09 10:09:57;;;;;;;7.13;2.10;;;;;;;30.01;51.23;102726.50;5201970;28;20025;-75
2022/08/09 10:12:31;;;;;;;3.70;1.90;;;;;;;29.89;50.56;102723.84;5187828;28;20049;-75
2022/08/09 10:15:15;;;;;;;8.45;2.58;;;;;;;29.82;51.33;102714.84;5192763;28;20388;-75
2022/08/09 10:17:47;;;;;;;9.68;2.33;;;;;;;29.42;51.09;102722.16;5187812;28;20033;-75
2022/08/09 10:20:18;;;;;;;6.00;2.10;;;;;;;29.41;52.10;102714.09;5201010;28;20402;-75
2022/08/09 10:22:54;;;;;;;5.97;1.88;;;;;;;29.67;53.51;102712.66;5201376;28;20041;-75
2022/08/09 10:25:25;;;;;;;6.22;2.08;;;;;;;29.91;51.64;102716.13;5200523;28;20034;-74
2022/08/09 10:27:57;;;;;;;8.20;1.70;;;;;;;29.69;51.28;102718.78;5200522;28;20243;-74
2022/08/09 10:30:28;;;;;;;5.82;2.05;;;;;;;29.56;51.85;102721.88;5199404;28;20468;-74
2022/08/09 10:32:59;;;;;;;6.00;2.58;;;;;;;29.64;52.04;102724.25;5201024;28;20025;-74
2022/08/09 10:35:30;;;;;;;4.97;1.83;;;;;;;29.69;50.40;102715.19;5200201;28;20137;-74
2022/08/09 10:38:02;;;;;;;6.82;2.20;;;;;;;29.21;51.81;102722.00;5200464;28;20040;-74
2022/08/09 10:40:34;;;;;;;5.53;1.88;;;;;;;28.68;51.09;102720.31;5201159;28;20029;-74
2022/08/09 10:43:05;;;;;;;7.72;2.08;;;;;;;28.44;52.25;102719.50;5200211;28;20033;-74
2022/08/09 10:45:36;;;;;;;6.65;1.60;;;;;;;28.43;52.88;102710.38;5190839;28;20430;-74
2022/08/09 10:48:12;;;;;;;4.63;2.03;;;;;;;28.68;53.76;102714.81;5192480;28;20098;-75
2022/08/09 10:51:17;;;;;;;5.35;1.75;;;;;;;29.08;52.75;102701.88;5200138;28;20025;-74
2022/08/09 10:54:06;;;;;;;6.18;1.98;;;;;;;29.22;51.30;102704.31;5189968;28;20084;-74
2022/08/09 10:56:40;;;;;;;8.07;2.25;;;;;;;29.16;51.78;102704.22;5199187;28;20026;-74
2022/08/09 10:59:29;;;;;;;6.82;2.10;;;;;;;28.85;52.72;102699.97;5200162;28;20468;-74
2022/08/09 11:02:00;;;;;;;8.18;2.17;;;;;;;28.93;52.72;102703.47;5200065;28;20087;-74
2022/08/09 11:04:32;;;;;;;6.28;2.05;;;;;;;28.70;51.83;102698.81;5187043;28;20072;-75
2022/08/09 11:07:02;;;;;;;4.85;1.80;;;;;;;28.98;53.29;102687.03;5200119;28;20395;-74
2022/08/09 11:09:42;;;;;;;7.20;1.80;;;;;;;29.22;52.20;102699.66;5199914;28;20038;-74
2022/08/09 11:12:15;;;;;;;3.55;2.00;;;;;;;28.57;51.19;102694.41;5184380;28;20064;-73
2022/08/09 11:14:53;;;;;;;3.78;1.92;;;;;;;28.59;53.48;102687.56;5179471;28;20056;-74
2022/08/09 11:17:23;;;;;;;5.43;2.10;;;;;;;28.58;51.86;102691.41;5197702;28;20112;-74
2022/08/09 11:20:10;;;;;;;4.68;1.98;;;;;;;28.72;52.96;102678.19;5199728;28;20546;-73
2022/08/09 11:25:30;;;;;;;4.38;1.90;;;;;;;29.11;53.38;102682.03;5196928;28;20278;-74
2022/08/09 11:28:01;;;;;;;5.18;1.45;;;;;;;29.09;51.02;102684.19;5199477;28;20719;-74
2022/08/09 11:30:34;;;;;;;6.45;2.15;;;;;;;29.34;51.48;102680.25;5200471;28;20468;-74
2022/08/09 11:33:15;;;;;;;3.88;1.58;;;;;;;29.49;50.93;102680.53;5200124;28;20120;-74
2022/08/09 11:35:54;;;;;;;2.95;1.73;;;;;;;29.80;52.05;102689.38;5199791;28;20505;-74
2022/08/09 11:38:27;;;;;;;2.97;1.88;;;;;;;29.66;50.58;102675.88;5199549;28;20112;-73
2022/08/09 11:41:10;;;;;;;4.35;1.80;;;;;;;29.36;49.92;102675.28;5200254;28;20033;-74
2022/08/09 11:43:45;;;;;;;5.70;2.13;;;;;;;28.91;50.12;102679.66;5189392;28;20079;-74
2022/08/09 11:46:15;;;;;;;;;;;;;;;28.69;50.78;102675.06;5203576;28;20120;-74
2022/08/09 11:48:48;;;;;;;5.72;1.70;;;;;;;28.66;51.72;102668.09;5200385;28;19993;-74